sensor_id;sensor_type;location;lat;lon;timestamp;temperature;humidity
25438;DHT22;13364;49.084;9.978;2023-06-24T00:01:43;17.50;77.00
25438;DHT22;13364;49.084;9.978;2023-06-24T00:04:10;17.60;76.90
25438;DHT22;13364;49.084;9.978;2023-06-24T00:06:37;17.50;76.00
25438;DHT22;13364;49.084;9.978;2023-06-24T00:09:06;17.50;75.40
25438;DHT22;13364;49.084;9.978;2023-06-24T00:11:34;17.50;75.70
25438;DHT22;13364;49.084;9.978;2023-06-24T00:14:01;17.50;75.70
25438;DHT22;13364;49.084;9.978;2023-06-24T00:16:28;17.50;75.70
25438;DHT22;13364;49.084;9.978;2023-06-24T00:18:56;17.50;76.20
25438;DHT22;13364;49.084;9.978;2023-06-24T00:21:27;17.50;76.10
25438;DHT22;13364;49.084;9.978;2023-06-24T00:23:59;17.50;76.20
25438;DHT22;13364;49.084;9.978;2023-06-24T00:26:29;17.50;76.40
25438;DHT22;13364;49.084;9.978;2023-06-24T00:28:56;17.40;76.50
25438;DHT22;13364;49.084;9.978;2023-06-24T00:31:23;17.40;76.30
25438;DHT22;13364;49.084;9.978;2023-06-24T00:33:50;17.40;76.50
25438;DHT22;13364;49.084;9.978;2023-06-24T00:36:19;17.30;76.30
25438;DHT22;13364;49.084;9.978;2023-06-24T00:38:46;17.30;76.30
25438;DHT22;13364;49.084;9.978;2023-06-24T00:41:17;17.20;76.20
25438;DHT22;13364;49.084;9.978;2023-06-24T00:43:47;17.20;75.90
25438;DHT22;13364;49.084;9.978;2023-06-24T00:46:14;17.10;76.00
25438;DHT22;13364;49.084;9.978;2023-06-24T00:48:59;17.10;75.80
25438;DHT22;13364;49.084;9.978;2023-06-24T00:51:28;17.00;75.80
25438;DHT22;13364;49.084;9.978;2023-06-24T00:53:59;16.90;75.70
25438;DHT22;13364;49.084;9.978;2023-06-24T00:56:31;16.80;76.10
25438;DHT22;13364;49.084;9.978;2023-06-24T00:59:02;16.70;76.60
25438;DHT22;13364;49.084;9.978;2023-06-24T01:01:34;16.70;76.90
25438;DHT22;13364;49.084;9.978;2023-06-24T01:04:06;16.70;77.10
25438;DHT22;13364;49.084;9.978;2023-06-24T01:06:35;16.60;77.30
25438;DHT22;13364;49.084;9.978;2023-06-24T01:09:02;16.60;77.60
25438;DHT22;13364;49.084;9.978;2023-06-24T01:11:32;16.50;77.70
25438;DHT22;13364;49.084;9.978;2023-06-24T01:13:59;16.50;77.80
25438;DHT22;13364;49.084;9.978;2023-06-24T01:16:53;16.50;78.00
25438;DHT22;13364;49.084;9.978;2023-06-24T01:28:33;16.10;78.40
25438;DHT22;13364;49.084;9.978;2023-06-24T01:34:34;16.00;78.70
25438;DHT22;13364;49.084;9.978;2023-06-24T01:37:36;16.00;78.90
25438;DHT22;13364;49.084;9.978;2023-06-24T01:42:39;15.90;79.20
25438;DHT22;13364;49.084;9.978;2023-06-24T01:45:12;15.90;79.40
25438;DHT22;13364;49.084;9.978;2023-06-24T01:51:59;15.80;79.50
25438;DHT22;13364;49.084;9.978;2023-06-24T01:54:28;15.90;79.90
25438;DHT22;13364;49.084;9.978;2023-06-24T01:56:57;15.90;79.80
25438;DHT22;13364;49.084;9.978;2023-06-24T01:59:29;15.90;79.80
25438;DHT22;13364;49.084;9.978;2023-06-24T02:01:57;15.80;79.90
25438;DHT22;13364;49.084;9.978;2023-06-24T02:04:24;15.80;80.10
25438;DHT22;13364;49.084;9.978;2023-06-24T02:07:00;15.70;80.30
25438;DHT22;13364;49.084;9.978;2023-06-24T02:09:29;15.80;80.20
25438;DHT22;13364;49.084;9.978;2023-06-24T02:12:01;15.80;80.20
25438;DHT22;13364;49.084;9.978;2023-06-24T02:14:29;15.70;80.30
25438;DHT22;13364;49.084;9.978;2023-06-24T02:16:59;15.80;80.00
25438;DHT22;13364;49.084;9.978;2023-06-24T02:19:29;15.70;79.90
25438;DHT22;13364;49.084;9.978;2023-06-24T02:21:58;15.70;80.00
25438;DHT22;13364;49.084;9.978;2023-06-24T02:24:27;15.70;80.10
25438;DHT22;13364;49.084;9.978;2023-06-24T02:26:59;15.60;79.80
25438;DHT22;13364;49.084;9.978;2023-06-24T02:29:27;15.60;80.00
25438;DHT22;13364;49.084;9.978;2023-06-24T02:31:55;15.60;80.00
25438;DHT22;13364;49.084;9.978;2023-06-24T02:34:23;15.50;80.10
25438;DHT22;13364;49.084;9.978;2023-06-24T02:36:51;15.50;80.00
25438;DHT22;13364;49.084;9.978;2023-06-24T02:39:19;15.50;80.10
25438;DHT22;13364;49.084;9.978;2023-06-24T02:41:46;15.50;80.20
25438;DHT22;13364;49.084;9.978;2023-06-24T02:44:16;15.40;80.10
25438;DHT22;13364;49.084;9.978;2023-06-24T02:46:44;15.40;80.30
25438;DHT22;13364;49.084;9.978;2023-06-24T02:49:15;15.40;80.40
25438;DHT22;13364;49.084;9.978;2023-06-24T02:51:44;15.50;80.40
25438;DHT22;13364;49.084;9.978;2023-06-24T02:54:13;15.40;80.50
25438;DHT22;13364;49.084;9.978;2023-06-24T02:57:03;15.50;80.70
25438;DHT22;13364;49.084;9.978;2023-06-24T02:59:52;15.40;80.50
25438;DHT22;13364;49.084;9.978;2023-06-24T03:02:20;15.40;80.60
25438;DHT22;13364;49.084;9.978;2023-06-24T03:04:50;15.40;80.90
25438;DHT22;13364;49.084;9.978;2023-06-24T03:07:17;15.30;81.30
25438;DHT22;13364;49.084;9.978;2023-06-24T03:09:48;15.30;81.60
25438;DHT22;13364;49.084;9.978;2023-06-24T03:12:16;15.30;81.40
25438;DHT22;13364;49.084;9.978;2023-06-24T03:14:43;15.30;80.80
25438;DHT22;13364;49.084;9.978;2023-06-24T03:17:10;15.20;80.50
25438;DHT22;13364;49.084;9.978;2023-06-24T03:19:38;15.10;80.70
25438;DHT22;13364;49.084;9.978;2023-06-24T03:25:37;15.00;81.00
25438;DHT22;13364;49.084;9.978;2023-06-24T03:28:05;15.00;81.20
25438;DHT22;13364;49.084;9.978;2023-06-24T03:30:39;15.00;81.30
25438;DHT22;13364;49.084;9.978;2023-06-24T03:33:06;15.00;81.70
25438;DHT22;13364;49.084;9.978;2023-06-24T03:35:33;15.00;81.70
25438;DHT22;13364;49.084;9.978;2023-06-24T03:38:04;15.00;81.70
25438;DHT22;13364;49.084;9.978;2023-06-24T03:40:33;15.00;81.80
25438;DHT22;13364;49.084;9.978;2023-06-24T03:43:00;15.00;81.70
25438;DHT22;13364;49.084;9.978;2023-06-24T03:45:27;15.00;81.60
25438;DHT22;13364;49.084;9.978;2023-06-24T03:47:55;15.00;81.60
25438;DHT22;13364;49.084;9.978;2023-06-24T03:50:22;15.00;81.60
25438;DHT22;13364;49.084;9.978;2023-06-24T03:52:49;15.00;81.70
25438;DHT22;13364;49.084;9.978;2023-06-24T03:55:16;15.00;81.90
25438;DHT22;13364;49.084;9.978;2023-06-24T03:57:43;15.00;82.00
25438;DHT22;13364;49.084;9.978;2023-06-24T04:00:11;15.00;82.20
25438;DHT22;13364;49.084;9.978;2023-06-24T04:02:44;15.10;82.20
25438;DHT22;13364;49.084;9.978;2023-06-24T04:05:12;15.00;82.40
25438;DHT22;13364;49.084;9.978;2023-06-24T04:07:39;15.10;82.40
25438;DHT22;13364;49.084;9.978;2023-06-24T04:10:08;15.10;82.60
25438;DHT22;13364;49.084;9.978;2023-06-24T04:12:35;15.10;82.80
25438;DHT22;13364;49.084;9.978;2023-06-24T04:15:35;15.10;82.80
25438;DHT22;13364;49.084;9.978;2023-06-24T04:18:04;15.10;82.80
25438;DHT22;13364;49.084;9.978;2023-06-24T04:20:32;15.20;82.10
25438;DHT22;13364;49.084;9.978;2023-06-24T04:23:04;15.20;81.80
25438;DHT22;13364;49.084;9.978;2023-06-24T04:25:32;15.20;81.90
25438;DHT22;13364;49.084;9.978;2023-06-24T04:28:00;15.30;82.20
25438;DHT22;13364;49.084;9.978;2023-06-24T04:30:28;15.30;81.70
25438;DHT22;13364;49.084;9.978;2023-06-24T04:32:55;15.40;81.30
25438;DHT22;13364;49.084;9.978;2023-06-24T04:35:22;15.40;80.90
25438;DHT22;13364;49.084;9.978;2023-06-24T04:37:49;15.40;80.70
25438;DHT22;13364;49.084;9.978;2023-06-24T04:40:17;15.40;80.70
25438;DHT22;13364;49.084;9.978;2023-06-24T04:42:45;15.50;80.80
25438;DHT22;13364;49.084;9.978;2023-06-24T04:45:13;15.50;81.10
25438;DHT22;13364;49.084;9.978;2023-06-24T04:47:40;15.50;81.40
25438;DHT22;13364;49.084;9.978;2023-06-24T04:50:08;15.50;81.80
25438;DHT22;13364;49.084;9.978;2023-06-24T04:52:39;15.60;81.50
25438;DHT22;13364;49.084;9.978;2023-06-24T04:55:06;15.70;81.10
25438;DHT22;13364;49.084;9.978;2023-06-24T04:57:33;15.70;80.90
25438;DHT22;13364;49.084;9.978;2023-06-24T05:00:03;15.80;80.50
25438;DHT22;13364;49.084;9.978;2023-06-24T05:02:31;15.90;80.50
25438;DHT22;13364;49.084;9.978;2023-06-24T05:04:59;16.00;80.70
25438;DHT22;13364;49.084;9.978;2023-06-24T05:07:26;16.00;80.00
25438;DHT22;13364;49.084;9.978;2023-06-24T05:10:20;16.10;79.80
25438;DHT22;13364;49.084;9.978;2023-06-24T05:12:47;16.30;79.80
25438;DHT22;13364;49.084;9.978;2023-06-24T05:15:14;16.40;78.90
25438;DHT22;13364;49.084;9.978;2023-06-24T05:17:42;16.50;78.90
25438;DHT22;13364;49.084;9.978;2023-06-24T05:20:10;16.60;78.20
25438;DHT22;13364;49.084;9.978;2023-06-24T05:22:37;16.70;77.10
25438;DHT22;13364;49.084;9.978;2023-06-24T05:25:05;16.80;76.70
25438;DHT22;13364;49.084;9.978;2023-06-24T05:27:32;16.90;76.70
25438;DHT22;13364;49.084;9.978;2023-06-24T05:29:59;17.00;76.20
25438;DHT22;13364;49.084;9.978;2023-06-24T05:32:26;17.00;75.80
25438;DHT22;13364;49.084;9.978;2023-06-24T05:34:53;17.00;75.90
25438;DHT22;13364;49.084;9.978;2023-06-24T05:37:21;17.00;75.30
25438;DHT22;13364;49.084;9.978;2023-06-24T05:39:48;17.00;75.60
25438;DHT22;13364;49.084;9.978;2023-06-24T05:42:15;17.00;75.50
25438;DHT22;13364;49.084;9.978;2023-06-24T05:44:42;17.00;75.10
25438;DHT22;13364;49.084;9.978;2023-06-24T05:47:09;17.10;75.40
25438;DHT22;13364;49.084;9.978;2023-06-24T05:49:36;17.20;74.90
25438;DHT22;13364;49.084;9.978;2023-06-24T05:52:04;17.20;74.50
25438;DHT22;13364;49.084;9.978;2023-06-24T05:54:31;17.20;74.80
25438;DHT22;13364;49.084;9.978;2023-06-24T05:56:58;17.30;74.50
25438;DHT22;13364;49.084;9.978;2023-06-24T05:59:26;17.40;73.70
25438;DHT22;13364;49.084;9.978;2023-06-24T06:01:53;17.50;74.00
25438;DHT22;13364;49.084;9.978;2023-06-24T06:04:20;17.60;73.20
25438;DHT22;13364;49.084;9.978;2023-06-24T06:06:47;17.60;74.00
25438;DHT22;13364;49.084;9.978;2023-06-24T06:09:14;17.70;72.70
25438;DHT22;13364;49.084;9.978;2023-06-24T06:11:41;17.70;72.50
25438;DHT22;13364;49.084;9.978;2023-06-24T06:14:08;17.70;71.50
25438;DHT22;13364;49.084;9.978;2023-06-24T06:16:36;17.70;71.30
25438;DHT22;13364;49.084;9.978;2023-06-24T06:19:03;17.60;71.50
25438;DHT22;13364;49.084;9.978;2023-06-24T06:21:30;17.70;71.90
25438;DHT22;13364;49.084;9.978;2023-06-24T06:23:57;17.80;72.10
25438;DHT22;13364;49.084;9.978;2023-06-24T06:26:24;17.80;71.10
25438;DHT22;13364;49.084;9.978;2023-06-24T06:28:51;17.90;71.80
25438;DHT22;13364;49.084;9.978;2023-06-24T06:31:20;18.00;71.60
25438;DHT22;13364;49.084;9.978;2023-06-24T06:33:48;18.10;71.70
25438;DHT22;13364;49.084;9.978;2023-06-24T06:36:15;18.30;71.20
25438;DHT22;13364;49.084;9.978;2023-06-24T06:38:42;18.40;70.30
25438;DHT22;13364;49.084;9.978;2023-06-24T06:41:09;18.40;70.30
25438;DHT22;13364;49.084;9.978;2023-06-24T06:43:37;18.50;70.30
25438;DHT22;13364;49.084;9.978;2023-06-24T06:46:04;18.60;71.90
25438;DHT22;13364;49.084;9.978;2023-06-24T06:48:31;18.80;71.00
25438;DHT22;13364;49.084;9.978;2023-06-24T06:50:58;18.90;69.80
25438;DHT22;13364;49.084;9.978;2023-06-24T06:56:52;19.00;68.50
25438;DHT22;13364;49.084;9.978;2023-06-24T06:59:19;18.90;67.70
25438;DHT22;13364;49.084;9.978;2023-06-24T07:01:46;18.90;68.50
25438;DHT22;13364;49.084;9.978;2023-06-24T07:07:46;19.10;67.90
25438;DHT22;13364;49.084;9.978;2023-06-24T07:10:14;19.20;67.50
25438;DHT22;13364;49.084;9.978;2023-06-24T07:12:41;19.30;68.30
25438;DHT22;13364;49.084;9.978;2023-06-24T07:15:08;19.30;66.90
25438;DHT22;13364;49.084;9.978;2023-06-24T07:17:39;19.40;68.10
25438;DHT22;13364;49.084;9.978;2023-06-24T07:20:07;19.50;68.10
25438;DHT22;13364;49.084;9.978;2023-06-24T07:22:34;19.60;67.90
25438;DHT22;13364;49.084;9.978;2023-06-24T07:25:01;19.70;67.60
25438;DHT22;13364;49.084;9.978;2023-06-24T07:27:29;19.80;67.60
25438;DHT22;13364;49.084;9.978;2023-06-24T07:29:56;19.90;66.10
25438;DHT22;13364;49.084;9.978;2023-06-24T07:32:25;20.00;65.50
25438;DHT22;13364;49.084;9.978;2023-06-24T07:34:52;20.00;65.60
25438;DHT22;13364;49.084;9.978;2023-06-24T07:37:20;20.10;65.20
25438;DHT22;13364;49.084;9.978;2023-06-24T07:40:20;20.20;64.60
25438;DHT22;13364;49.084;9.978;2023-06-24T07:42:48;20.30;64.90
25438;DHT22;13364;49.084;9.978;2023-06-24T07:45:16;20.40;64.00
25438;DHT22;13364;49.084;9.978;2023-06-24T07:47:44;20.50;64.50
25438;DHT22;13364;49.084;9.978;2023-06-24T07:50:14;20.60;64.20
25438;DHT22;13364;49.084;9.978;2023-06-24T07:52:47;20.70;64.30
25438;DHT22;13364;49.084;9.978;2023-06-24T07:55:15;20.80;64.70
25438;DHT22;13364;49.084;9.978;2023-06-24T07:57:45;21.00;64.50
25438;DHT22;13364;49.084;9.978;2023-06-24T08:00:14;21.10;64.90
25438;DHT22;13364;49.084;9.978;2023-06-24T08:02:42;21.30;63.90
25438;DHT22;13364;49.084;9.978;2023-06-24T08:05:09;21.50;63.00
25438;DHT22;13364;49.084;9.978;2023-06-24T08:07:40;21.60;62.40
25438;DHT22;13364;49.084;9.978;2023-06-24T08:10:07;21.70;62.80
25438;DHT22;13364;49.084;9.978;2023-06-24T08:12:34;21.80;60.90
25438;DHT22;13364;49.084;9.978;2023-06-24T08:15:02;21.90;61.10
25438;DHT22;13364;49.084;9.978;2023-06-24T08:17:29;21.90;60.60
25438;DHT22;13364;49.084;9.978;2023-06-24T08:19:56;21.80;60.80
25438;DHT22;13364;49.084;9.978;2023-06-24T08:22:23;21.90;60.60
25438;DHT22;13364;49.084;9.978;2023-06-24T08:25:16;21.90;60.30
25438;DHT22;13364;49.084;9.978;2023-06-24T08:27:44;22.00;60.40
25438;DHT22;13364;49.084;9.978;2023-06-24T08:30:16;22.10;59.40
25438;DHT22;13364;49.084;9.978;2023-06-24T08:32:43;22.10;60.00
25438;DHT22;13364;49.084;9.978;2023-06-24T08:35:10;22.20;59.00
25438;DHT22;13364;49.084;9.978;2023-06-24T08:37:37;22.40;59.90
25438;DHT22;13364;49.084;9.978;2023-06-24T08:40:42;22.60;58.70
25438;DHT22;13364;49.084;9.978;2023-06-24T08:43:10;22.80;55.90
25438;DHT22;13364;49.084;9.978;2023-06-24T08:45:38;23.00;56.30
25438;DHT22;13364;49.084;9.978;2023-06-24T08:48:05;23.10;55.70
25438;DHT22;13364;49.084;9.978;2023-06-24T08:50:36;23.30;55.00
25438;DHT22;13364;49.084;9.978;2023-06-24T08:53:07;23.40;54.70
25438;DHT22;13364;49.084;9.978;2023-06-24T08:55:40;23.60;55.20
25438;DHT22;13364;49.084;9.978;2023-06-24T08:58:07;23.70;53.70
25438;DHT22;13364;49.084;9.978;2023-06-24T09:00:35;23.70;53.60
25438;DHT22;13364;49.084;9.978;2023-06-24T09:03:02;23.80;53.90
25438;DHT22;13364;49.084;9.978;2023-06-24T09:05:29;23.90;54.20
25438;DHT22;13364;49.084;9.978;2023-06-24T09:07:56;24.00;53.60
25438;DHT22;13364;49.084;9.978;2023-06-24T09:10:34;24.10;53.40
25438;DHT22;13364;49.084;9.978;2023-06-24T09:13:07;24.10;53.20
25438;DHT22;13364;49.084;9.978;2023-06-24T09:15:36;24.20;53.70
25438;DHT22;13364;49.084;9.978;2023-06-24T09:18:04;24.30;54.50
25438;DHT22;13364;49.084;9.978;2023-06-24T09:20:32;24.60;53.90
25438;DHT22;13364;49.084;9.978;2023-06-24T09:23:01;24.90;53.60
25438;DHT22;13364;49.084;9.978;2023-06-24T09:25:29;25.30;52.50
25438;DHT22;13364;49.084;9.978;2023-06-24T09:28:00;25.70;52.10
25438;DHT22;13364;49.084;9.978;2023-06-24T09:30:28;26.00;49.10
25438;DHT22;13364;49.084;9.978;2023-06-24T09:32:55;26.10;46.90
25438;DHT22;13364;49.084;9.978;2023-06-24T09:35:24;25.90;47.10
25438;DHT22;13364;49.084;9.978;2023-06-24T09:37:53;25.70;46.40
25438;DHT22;13364;49.084;9.978;2023-06-24T09:40:22;25.40;46.20
25438;DHT22;13364;49.084;9.978;2023-06-24T09:42:57;25.20;48.00
25438;DHT22;13364;49.084;9.978;2023-06-24T09:45:29;25.10;46.80
25438;DHT22;13364;49.084;9.978;2023-06-24T09:47:57;25.00;47.70
25438;DHT22;13364;49.084;9.978;2023-06-24T09:50:25;24.90;47.50
25438;DHT22;13364;49.084;9.978;2023-06-24T09:52:53;24.90;49.10
25438;DHT22;13364;49.084;9.978;2023-06-24T09:55:21;25.20;47.50
25438;DHT22;13364;49.084;9.978;2023-06-24T09:57:51;25.20;46.60
25438;DHT22;13364;49.084;9.978;2023-06-24T10:00:20;25.30;48.00
25438;DHT22;13364;49.084;9.978;2023-06-24T10:02:48;25.40;46.20
25438;DHT22;13364;49.084;9.978;2023-06-24T10:05:15;25.60;46.60
25438;DHT22;13364;49.084;9.978;2023-06-24T10:07:43;25.60;45.70
25438;DHT22;13364;49.084;9.978;2023-06-24T10:10:10;25.60;46.70
25438;DHT22;13364;49.084;9.978;2023-06-24T10:12:38;25.60;45.10
25438;DHT22;13364;49.084;9.978;2023-06-24T10:15:05;25.90;46.30
25438;DHT22;13364;49.084;9.978;2023-06-24T10:17:33;26.30;46.70
25438;DHT22;13364;49.084;9.978;2023-06-24T10:20:04;26.70;43.90
25438;DHT22;13364;49.084;9.978;2023-06-24T10:22:33;27.00;42.80
25438;DHT22;13364;49.084;9.978;2023-06-24T10:25:01;26.90;42.50
25438;DHT22;13364;49.084;9.978;2023-06-24T10:34:27;26.20;43.40
25438;DHT22;13364;49.084;9.978;2023-06-24T10:37:03;26.40;43.30
25438;DHT22;13364;49.084;9.978;2023-06-24T10:39:53;26.70;45.10
25438;DHT22;13364;49.084;9.978;2023-06-24T10:42:41;26.70;42.60
25438;DHT22;13364;49.084;9.978;2023-06-24T10:50:49;26.70;42.70
25438;DHT22;13364;49.084;9.978;2023-06-24T10:53:16;27.00;41.50
25438;DHT22;13364;49.084;9.978;2023-06-24T10:55:45;27.30;42.90
25438;DHT22;13364;49.084;9.978;2023-06-24T10:58:14;27.70;41.40
25438;DHT22;13364;49.084;9.978;2023-06-24T11:00:43;28.00;41.00
25438;DHT22;13364;49.084;9.978;2023-06-24T11:03:16;28.30;39.90
25438;DHT22;13364;49.084;9.978;2023-06-24T11:05:45;28.50;40.50
25438;DHT22;13364;49.084;9.978;2023-06-24T11:08:13;28.80;40.10
25438;DHT22;13364;49.084;9.978;2023-06-24T11:10:47;29.10;38.30
25438;DHT22;13364;49.084;9.978;2023-06-24T11:16:40;29.20;38.30
25438;DHT22;13364;49.084;9.978;2023-06-24T11:19:07;29.20;37.50
25438;DHT22;13364;49.084;9.978;2023-06-24T11:21:35;29.30;37.90
25438;DHT22;13364;49.084;9.978;2023-06-24T11:24:03;29.30;38.70
25438;DHT22;13364;49.084;9.978;2023-06-24T11:26:30;29.50;38.00
25438;DHT22;13364;49.084;9.978;2023-06-24T11:28:57;29.70;38.50
25438;DHT22;13364;49.084;9.978;2023-06-24T11:31:27;29.90;36.20
25438;DHT22;13364;49.084;9.978;2023-06-24T11:33:55;29.90;35.70
25438;DHT22;13364;49.084;9.978;2023-06-24T11:36:22;29.90;36.30
25438;DHT22;13364;49.084;9.978;2023-06-24T11:38:49;30.00;36.80
25438;DHT22;13364;49.084;9.978;2023-06-24T11:41:16;30.20;36.50
25438;DHT22;13364;49.084;9.978;2023-06-24T11:43:47;30.50;34.70
25438;DHT22;13364;49.084;9.978;2023-06-24T11:46:23;30.30;35.20
25438;DHT22;13364;49.084;9.978;2023-06-24T11:48:51;30.20;35.70
25438;DHT22;13364;49.084;9.978;2023-06-24T11:51:18;30.30;34.30
25438;DHT22;13364;49.084;9.978;2023-06-24T11:53:46;29.80;35.70
25438;DHT22;13364;49.084;9.978;2023-06-24T11:56:13;29.80;36.10
25438;DHT22;13364;49.084;9.978;2023-06-24T11:58:43;29.70;36.90
25438;DHT22;13364;49.084;9.978;2023-06-24T12:01:10;29.70;36.20
25438;DHT22;13364;49.084;9.978;2023-06-24T12:03:37;29.60;37.90
25438;DHT22;13364;49.084;9.978;2023-06-24T12:06:04;29.70;37.90
25438;DHT22;13364;49.084;9.978;2023-06-24T12:08:32;29.60;36.00
25438;DHT22;13364;49.084;9.978;2023-06-24T12:11:17;29.30;38.00
25438;DHT22;13364;49.084;9.978;2023-06-24T12:13:44;29.40;37.90
25438;DHT22;13364;49.084;9.978;2023-06-24T12:16:11;29.50;36.40
25438;DHT22;13364;49.084;9.978;2023-06-24T12:18:38;29.50;36.50
25438;DHT22;13364;49.084;9.978;2023-06-24T12:21:05;29.60;36.60
25438;DHT22;13364;49.084;9.978;2023-06-24T12:23:32;30.00;36.10
25438;DHT22;13364;49.084;9.978;2023-06-24T12:25:59;30.30;35.60
25438;DHT22;13364;49.084;9.978;2023-06-24T12:28:27;30.70;34.40
25438;DHT22;13364;49.084;9.978;2023-06-24T12:30:54;31.10;33.90
25438;DHT22;13364;49.084;9.978;2023-06-24T12:33:22;31.20;33.70
25438;DHT22;13364;49.084;9.978;2023-06-24T12:35:49;31.30;33.30
25438;DHT22;13364;49.084;9.978;2023-06-24T12:38:17;31.40;33.10
25438;DHT22;13364;49.084;9.978;2023-06-24T12:40:44;31.50;33.10
25438;DHT22;13364;49.084;9.978;2023-06-24T12:43:12;31.60;32.10
25438;DHT22;13364;49.084;9.978;2023-06-24T12:45:40;31.50;32.70
25438;DHT22;13364;49.084;9.978;2023-06-24T12:48:10;31.60;32.70
25438;DHT22;13364;49.084;9.978;2023-06-24T12:50:38;31.70;31.90
25438;DHT22;13364;49.084;9.978;2023-06-24T12:53:05;31.90;32.50
25438;DHT22;13364;49.084;9.978;2023-06-24T12:55:32;31.80;31.70
25438;DHT22;13364;49.084;9.978;2023-06-24T12:57:59;31.40;32.20
25438;DHT22;13364;49.084;9.978;2023-06-24T13:00:26;30.80;32.20
25438;DHT22;13364;49.084;9.978;2023-06-24T13:02:53;30.20;33.30
25438;DHT22;13364;49.084;9.978;2023-06-24T13:05:21;29.90;33.90
25438;DHT22;13364;49.084;9.978;2023-06-24T13:07:49;29.70;35.50
25438;DHT22;13364;49.084;9.978;2023-06-24T13:10:16;29.90;36.20
25438;DHT22;13364;49.084;9.978;2023-06-24T13:12:43;30.00;35.20
25438;DHT22;13364;49.084;9.978;2023-06-24T13:15:10;29.90;35.40
25438;DHT22;13364;49.084;9.978;2023-06-24T13:17:37;29.60;35.10
25438;DHT22;13364;49.084;9.978;2023-06-24T13:20:05;29.30;35.10
25438;DHT22;13364;49.084;9.978;2023-06-24T13:22:33;29.20;35.90
25438;DHT22;13364;49.084;9.978;2023-06-24T13:25:00;29.40;35.30
25438;DHT22;13364;49.084;9.978;2023-06-24T13:27:32;29.60;36.00
25438;DHT22;13364;49.084;9.978;2023-06-24T13:30:00;29.90;36.30
25438;DHT22;13364;49.084;9.978;2023-06-24T13:32:27;30.30;35.00
25438;DHT22;13364;49.084;9.978;2023-06-24T13:34:54;30.60;33.60
25438;DHT22;13364;49.084;9.978;2023-06-24T13:37:21;31.00;33.30
25438;DHT22;13364;49.084;9.978;2023-06-24T13:39:48;31.30;32.70
25438;DHT22;13364;49.084;9.978;2023-06-24T13:42:15;31.30;32.90
25438;DHT22;13364;49.084;9.978;2023-06-24T13:44:42;31.30;33.40
25438;DHT22;13364;49.084;9.978;2023-06-24T13:47:11;31.10;33.20
25438;DHT22;13364;49.084;9.978;2023-06-24T13:49:38;31.10;33.90
25438;DHT22;13364;49.084;9.978;2023-06-24T13:52:05;31.00;33.70
25438;DHT22;13364;49.084;9.978;2023-06-24T13:54:33;30.70;33.20
25438;DHT22;13364;49.084;9.978;2023-06-24T13:57:02;30.50;33.80
25438;DHT22;13364;49.084;9.978;2023-06-24T13:59:29;30.80;34.50
25438;DHT22;13364;49.084;9.978;2023-06-24T14:01:57;30.80;32.00
25438;DHT22;13364;49.084;9.978;2023-06-24T14:04:24;30.60;33.50
25438;DHT22;13364;49.084;9.978;2023-06-24T14:06:51;30.60;32.60
25438;DHT22;13364;49.084;9.978;2023-06-24T14:09:20;30.70;32.50
25438;DHT22;13364;49.084;9.978;2023-06-24T14:11:47;30.60;31.40
25438;DHT22;13364;49.084;9.978;2023-06-24T14:14:14;30.50;32.30
25438;DHT22;13364;49.084;9.978;2023-06-24T14:16:41;30.30;33.30
25438;DHT22;13364;49.084;9.978;2023-06-24T14:19:08;30.30;33.50
25438;DHT22;13364;49.084;9.978;2023-06-24T14:21:36;30.50;33.20
25438;DHT22;13364;49.084;9.978;2023-06-24T14:24:05;30.60;32.10
25438;DHT22;13364;49.084;9.978;2023-06-24T14:26:42;30.70;32.20
25438;DHT22;13364;49.084;9.978;2023-06-24T14:29:09;31.00;32.20
25438;DHT22;13364;49.084;9.978;2023-06-24T14:31:36;31.10;31.30
25438;DHT22;13364;49.084;9.978;2023-06-24T14:34:03;30.90;31.40
25438;DHT22;13364;49.084;9.978;2023-06-24T14:36:30;30.70;32.20
25438;DHT22;13364;49.084;9.978;2023-06-24T14:38:57;30.30;32.30
25438;DHT22;13364;49.084;9.978;2023-06-24T14:41:30;29.90;33.60
25438;DHT22;13364;49.084;9.978;2023-06-24T14:43:57;29.90;32.90
25438;DHT22;13364;49.084;9.978;2023-06-24T14:46:24;30.10;33.00
25438;DHT22;13364;49.084;9.978;2023-06-24T14:48:51;30.50;33.10
25438;DHT22;13364;49.084;9.978;2023-06-24T14:51:18;30.80;32.30
25438;DHT22;13364;49.084;9.978;2023-06-24T14:53:45;31.00;32.10
25438;DHT22;13364;49.084;9.978;2023-06-24T14:56:12;31.20;31.60
25438;DHT22;13364;49.084;9.978;2023-06-24T14:58:39;31.20;31.80
25438;DHT22;13364;49.084;9.978;2023-06-24T15:01:06;31.20;31.60
25438;DHT22;13364;49.084;9.978;2023-06-24T15:03:33;31.40;31.40
25438;DHT22;13364;49.084;9.978;2023-06-24T15:06:00;31.60;32.20
25438;DHT22;13364;49.084;9.978;2023-06-24T15:08:28;31.60;31.00
25438;DHT22;13364;49.084;9.978;2023-06-24T15:10:55;31.60;31.70
25438;DHT22;13364;49.084;9.978;2023-06-24T15:13:22;31.40;30.90
25438;DHT22;13364;49.084;9.978;2023-06-24T15:15:49;31.00;31.80
25438;DHT22;13364;49.084;9.978;2023-06-24T15:18:16;30.80;31.60
25438;DHT22;13364;49.084;9.978;2023-06-24T15:20:44;30.80;32.30
25438;DHT22;13364;49.084;9.978;2023-06-24T15:23:11;30.90;30.20
25438;DHT22;13364;49.084;9.978;2023-06-24T15:25:38;30.70;31.20
25438;DHT22;13364;49.084;9.978;2023-06-24T15:28:05;30.70;32.50
25438;DHT22;13364;49.084;9.978;2023-06-24T15:30:32;30.80;31.50
25438;DHT22;13364;49.084;9.978;2023-06-24T15:32:59;31.00;31.40
25438;DHT22;13364;49.084;9.978;2023-06-24T15:35:26;31.20;31.60
25438;DHT22;13364;49.084;9.978;2023-06-24T15:37:53;31.40;31.40
25438;DHT22;13364;49.084;9.978;2023-06-24T15:40:20;31.40;31.00
25438;DHT22;13364;49.084;9.978;2023-06-24T15:42:47;31.30;30.90
25438;DHT22;13364;49.084;9.978;2023-06-24T15:45:14;31.30;31.50
25438;DHT22;13364;49.084;9.978;2023-06-24T15:47:41;31.00;31.80
25438;DHT22;13364;49.084;9.978;2023-06-24T15:50:09;30.60;31.80
25438;DHT22;13364;49.084;9.978;2023-06-24T15:52:36;30.20;31.80
25438;DHT22;13364;49.084;9.978;2023-06-24T15:55:04;29.90;32.80
25438;DHT22;13364;49.084;9.978;2023-06-24T15:57:31;29.80;32.70
25438;DHT22;13364;49.084;9.978;2023-06-24T15:59:58;30.00;33.20
25438;DHT22;13364;49.084;9.978;2023-06-24T16:02:25;30.00;32.00
25438;DHT22;13364;49.084;9.978;2023-06-24T16:04:52;29.80;33.00
25438;DHT22;13364;49.084;9.978;2023-06-24T16:07:19;29.60;33.80
25438;DHT22;13364;49.084;9.978;2023-06-24T16:09:46;29.60;33.80
25438;DHT22;13364;49.084;9.978;2023-06-24T16:12:13;29.60;33.70
25438;DHT22;13364;49.084;9.978;2023-06-24T16:14:41;29.70;33.00
25438;DHT22;13364;49.084;9.978;2023-06-24T16:17:08;29.80;32.40
25438;DHT22;13364;49.084;9.978;2023-06-24T16:19:35;29.50;33.60
25438;DHT22;13364;49.084;9.978;2023-06-24T16:22:02;29.50;34.30
25438;DHT22;13364;49.084;9.978;2023-06-24T16:24:29;29.50;33.70
25438;DHT22;13364;49.084;9.978;2023-06-24T16:26:56;29.20;34.30